Time;durP1;ratioP1;P1;durP2;ratioP2;P2;SDS_P1;SDS_P2;PMS_P1;PMS_P2;Temp;Humidity;BMP_temperature;BMP_pressure;BME280_temperature;BME280_humidity;BME280_pressure;Samples;Min_cycle;Max_cycle;Signal;HPM_P1;HPM_P2
2022/04/20 00:01:44;;;;;;;39.72;25.38;;;8.40;81.00;;;;;;5074312;28;20021;-14
2022/04/20 00:04:11;;;;;;;33.53;23.35;;;8.40;80.50;;;;;;5074230;28;20025;-13
2022/04/20 00:06:37;;;;;;;32.88;21.13;;;8.40;79.90;;;;;;5073611;28;20032;-13
2022/04/20 00:09:03;;;;;;;34.22;21.67;;;8.30;80.40;;;;;;5073878;28;20480;-13
2022/04/20 00:11:29;;;;;;;30.85;20.17;;;8.30;80.40;;;;;;5073623;28;20059;-15
2022/04/20 00:13:55;;;;;;;27.45;18.55;;;8.30;79.90;;;;;;5074388;28;20086;-13
2022/04/20 00:16:21;;;;;;;24.02;18.13;;;8.40;80.00;;;;;;5073497;28;20028;-13
2022/04/20 00:18:47;;;;;;;31.33;22.05;;;8.30;79.90;;;;;;5074040;28;20074;-12
2022/04/20 00:21:13;;;;;;;33.42;20.38;;;8.30;80.40;;;;;;5073902;28;20425;-13
2022/04/20 00:23:39;;;;;;;27.80;18.60;;;8.30;80.20;;;;;;5073952;28;20021;-13
2022/04/20 00:26:05;;;;;;;29.08;17.63;;;8.30;80.10;;;;;;5073599;28;20020;-13
2022/04/20 00:28:31;;;;;;;22.73;14.98;;;8.30;79.70;;;;;;5073434;28;20024;-12
2022/04/20 00:30:57;;;;;;;26.38;15.88;;;8.30;79.40;;;;;;5073755;28;20016;-12
2022/04/20 00:33:26;;;;;;;23.95;14.70;;;8.30;79.10;;;;;;5073450;28;20024;-13
2022/04/20 00:35:52;;;;;;;24.58;12.02;;;8.20;79.90;;;;;;5073385;28;20028;-13
2022/04/20 00:38:18;;;;;;;15.90;10.50;;;8.20;79.20;;;;;;5073112;28;20031;-13
2022/04/20 00:40:47;;;;;;;15.70;9.88;;;8.20;79.60;;;;;;5073953;28;20025;-13
2022/04/20 00:43:13;;;;;;;13.48;8.45;;;8.20;79.50;;;;;;5073412;28;20490;-13
2022/04/20 00:45:45;;;;;;;18.63;9.18;;;8.20;79.10;;;;;;5073700;28;20095;-13
2022/04/20 00:48:12;;;;;;;21.35;11.43;;;8.20;79.80;;;;;;5072130;28;20475;-13
2022/04/20 00:50:42;;;;;;;20.40;12.35;;;8.30;79.30;;;;;;5073013;28;20043;-12
2022/04/20 00:53:09;;;;;;;34.95;21.52;;;8.30;80.70;;;;;;5073490;28;20111;-13
2022/04/20 00:55:35;;;;;;;26.90;16.35;;;8.40;80.40;;;;;;5073502;28;20516;-12
2022/04/20 00:58:00;;;;;;;30.25;17.77;;;8.50;79.90;;;;;;5073502;28;20116;-14
2022/04/20 01:00:27;;;;;;;21.25;12.57;;;8.60;80.00;;;;;;5073297;28;20388;-12
2022/04/20 01:02:54;;;;;;;18.42;9.95;;;8.60;79.40;;;;;;5073758;28;20095;-13
2022/04/20 01:05:21;;;;;;;19.73;9.05;;;8.60;78.80;;;;;;5072979;28;20027;-13
2022/04/20 01:07:47;;;;;;;13.10;8.10;;;8.60;79.40;;;;;;5073197;28;20353;-13
2022/04/20 01:10:13;;;;;;;15.75;7.55;;;8.50;78.80;;;;;;5073317;28;20498;-13
2022/04/20 01:12:45;;;;;;;15.60;7.88;;;8.50;79.20;;;;;;5072980;28;20059;-13
2022/04/20 01:15:14;;;;;;;10.73;6.47;;;8.50;78.80;;;;;;5073076;28;20032;-13
2022/04/20 01:17:42;;;;;;;11.20;6.22;;;8.50;78.60;;;;;;5072977;28;20541;-13
2022/04/20 01:20:18;;;;;;;11.32;6.22;;;8.50;78.40;;;;;;5073213;28;20481;-13
2022/04/20 01:22:44;;;;;;;11.35;6.35;;;8.50;78.50;;;;;;5073222;28;20027;-13
2022/04/20 01:25:10;;;;;;;11.45;5.78;;;8.50;78.30;;;;;;5072943;28;20484;-12
2022/04/20 01:27:37;;;;;;;9.30;5.50;;;8.40;78.00;;;;;;5072867;28;20388;-12
2022/04/20 01:30:04;;;;;;;9.00;5.30;;;8.40;78.00;;;;;;5072837;28;20025;-12
2022/04/20 01:32:30;;;;;;;7.55;4.60;;;8.40;78.00;;;;;;5073677;28;20036;-13
2022/04/20 01:34:56;;;;;;;7.70;4.63;;;8.40;78.00;;;;;;5072814;28;20408;-13
2022/04/20 01:37:22;;;;;;;7.13;4.03;;;8.40;77.70;;;;;;5073322;28;20036;-13
2022/04/20 01:39:48;;;;;;;10.30;4.50;;;8.40;77.20;;;;;;5072741;28;20082;-13
2022/04/20 01:42:13;;;;;;;7.35;3.65;;;8.40;77.40;;;;;;5072625;28;20016;-15
2022/04/20 01:44:39;;;;;;;7.57;4.15;;;8.40;77.20;;;;;;5072629;28;20029;-12
2022/04/20 01:47:05;;;;;;;6.32;3.90;;;8.50;77.00;;;;;;5072687;28;20029;-11
2022/04/20 01:49:31;;;;;;;6.80;3.28;;;8.50;76.80;;;;;;5071809;28;20046;-12
2022/04/20 01:51:57;;;;;;;7.07;3.72;;;8.50;77.00;;;;;;5072418;28;20391;-13
2022/04/20 01:54:23;;;;;;;5.93;3.30;;;8.40;76.90;;;;;;5072433;28;20070;-14
2022/04/20 01:56:51;;;;;;;5.93;3.35;;;8.50;76.50;;;;;;5072553;28;20384;-13
2022/04/20 01:59:17;;;;;;;6.47;2.92;;;8.50;76.00;;;;;;5072804;28;20480;-13
2022/04/20 02:04:28;;;;;;;7.50;2.90;;;8.50;75.70;;;;;;5072399;28;20051;-12
2022/04/20 02:06:55;;;;;;;7.13;2.83;;;8.60;75.60;;;;;;5072743;28;20099;-13
2022/04/20 02:09:21;;;;;;;6.40;2.70;;;8.60;75.30;;;;;;5072737;28;20033;-13
2022/04/20 02:11:47;;;;;;;3.65;2.50;;;8.60;75.30;;;;;;5072655;28;20040;-13
2022/04/20 02:14:12;;;;;;;8.27;2.80;;;8.60;75.20;;;;;;5072256;28;20037;-12
2022/04/20 02:16:38;;;;;;;3.70;2.30;;;8.60;75.10;;;;;;5072424;28;20028;-13
2022/04/20 02:19:04;;;;;;;3.22;2.10;;;8.60;74.90;;;;;;5073769;28;20028;-13
2022/04/20 02:21:31;;;;;;;3.58;2.40;;;8.60;75.00;;;;;;5076244;28;20021;-12
2022/04/20 02:23:57;;;;;;;3.42;1.95;;;8.60;74.80;;;;;;5076267;28;20073;-12
2022/04/20 02:26:22;;;;;;;4.45;2.00;;;8.60;74.80;;;;;;5075787;28;20104;-12
2022/04/20 02:28:48;;;;;;;5.00;2.10;;;8.70;74.50;;;;;;5075824;28;20032;-13
2022/04/20 02:31:14;;;;;;;6.15;2.17;;;8.70;74.40;;;;;;5076024;28;20589;-13
2022/04/20 02:33:41;;;;;;;4.57;2.13;;;8.80;74.20;;;;;;5076052;28;20030;-13
2022/04/20 02:36:07;;;;;;;3.85;2.30;;;8.70;74.30;;;;;;5076336;28;20024;-13
2022/04/20 02:38:34;;;;;;;4.88;2.00;;;8.80;74.10;;;;;;5076275;28;20483;-15
2022/04/20 02:41:01;;;;;;;1.88;1.73;;;8.80;73.80;;;;;;5074478;28;20033;-14
2022/04/20 02:43:27;;;;;;;2.35;2.00;;;8.80;73.70;;;;;;5075945;28;20025;-12
2022/04/20 02:45:56;;;;;;;2.78;2.10;;;8.80;73.40;;;;;;5075860;28;20027;-12
2022/04/20 02:48:21;;;;;;;3.65;2.00;;;8.90;73.50;;;;;;5075620;28;20056;-13
2022/04/20 02:50:47;;;;;;;3.15;1.95;;;8.90;73.20;;;;;;5075393;28;20479;-12
2022/04/20 02:53:13;;;;;;;2.65;1.95;;;8.90;73.00;;;;;;5074441;28;20120;-13
2022/04/20 02:55:42;;;;;;;3.85;1.50;;;8.90;72.90;;;;;;5075826;28;20461;-14
2022/04/20 02:58:08;;;;;;;2.47;1.70;;;8.90;72.80;;;;;;5075966;28;20021;-13
2022/04/20 03:00:35;;;;;;;2.65;1.55;;;8.90;73.00;;;;;;5075382;28;20028;-13
2022/04/20 03:03:00;;;;;;;5.82;1.55;;;8.90;72.60;;;;;;5075553;28;20055;-12
2022/04/20 03:05:26;;;;;;;4.00;1.65;;;8.90;72.50;;;;;;5075451;28;20060;-12
2022/04/20 03:07:52;;;;;;;2.75;1.60;;;8.90;72.10;;;;;;5075132;28;20024;-11
2022/04/20 03:10:18;;;;;;;2.42;1.63;;;8.90;72.00;;;;;;5075235;28;20056;-13
2022/04/20 03:12:44;;;;;;;2.17;1.40;;;8.90;71.80;;;;;;5074728;28;20404;-13
2022/04/20 03:15:10;;;;;;;1.23;1.13;;;8.90;71.80;;;;;;5075340;28;20372;-12
2022/04/20 03:17:36;;;;;;;1.90;1.50;;;9.00;71.30;;;;;;5073666;28;20046;-13
2022/04/20 03:20:02;;;;;;;1.58;1.33;;;9.00;71.30;;;;;;5074934;28;20028;-13
2022/04/20 03:22:27;;;;;;;1.20;1.10;;;8.90;70.90;;;;;;5074728;28;20103;-13
2022/04/20 03:24:53;;;;;;;2.28;1.40;;;8.90;70.00;;;;;;5075057;28;20113;-13
2022/04/20 03:27:21;;;;;;;1.27;1.08;;;9.00;69.60;;;;;;5075081;28;20042;-12
2022/04/20 03:29:47;;;;;;;1.25;1.15;;;9.00;69.60;;;;;;5074719;28;20158;-13
2022/04/20 03:32:15;;;;;;;1.95;1.40;;;9.00;69.70;;;;;;5074800;28;20021;-14
2022/04/20 03:34:41;;;;;;;1.00;1.00;;;9.00;69.60;;;;;;5074538;28;20036;-13
2022/04/20 03:37:09;;;;;;;1.10;1.00;;;9.00;69.70;;;;;;5074467;28;20430;-12
2022/04/20 03:39:36;;;;;;;1.27;1.00;;;9.00;69.70;;;;;;5074716;28;20032;-13
2022/04/20 03:42:03;;;;;;;1.20;1.10;;;9.00;69.80;;;;;;5074475;28;20017;-13
2022/04/20 03:44:31;;;;;;;2.72;1.25;;;9.00;69.20;;;;;;5074226;28;20032;-13
2022/04/20 03:46:57;;;;;;;1.52;1.27;;;9.00;69.20;;;;;;5074764;28;20021;-12
2022/04/20 03:49:22;;;;;;;2.53;1.40;;;9.00;69.20;;;;;;5074285;28;20099;-13
2022/04/20 03:51:49;;;;;;;2.38;1.42;;;9.00;69.00;;;;;;5074530;28;20126;-13
2022/04/20 03:54:15;;;;;;;1.50;1.38;;;9.00;69.30;;;;;;5074022;28;20040;-13
2022/04/20 03:59:25;;;;;;;1.10;1.10;;;9.00;69.30;;;;;;5073771;28;20071;-13
2022/04/20 04:01:51;;;;;;;0.75;0.75;;;9.00;69.40;;;;;;5074318;28;20031;-13
2022/04/20 04:04:21;;;;;;;1.55;1.17;;;9.00;69.40;;;;;;5073832;28;20033;-13
2022/04/20 04:06:47;;;;;;;1.40;1.30;;;9.00;69.40;;;;;;5073496;28;20075;-12
2022/04/20 04:09:14;;;;;;;2.00;1.17;;;9.00;69.50;;;;;;5073964;28;20436;-13
2022/04/20 04:11:40;;;;;;;1.85;1.50;;;8.90;69.60;;;;;;5073767;28;20029;-13
2022/04/20 04:14:05;;;;;;;1.40;1.30;;;9.00;69.70;;;;;;5073984;28;20045;-13
2022/04/20 04:16:36;;;;;;;1.98;1.60;;;8.90;69.80;;;;;;5073931;28;20349;-13
2022/04/20 04:19:06;;;;;;;2.17;1.60;;;8.90;69.80;;;;;;5074084;28;20376;-12
2022/04/20 04:21:36;;;;;;;3.20;1.30;;;8.90;69.70;;;;;;5073709;28;20023;-13
2022/04/20 04:24:07;;;;;;;1.30;1.20;;;9.00;69.60;;;;;;5074030;28;20026;-12
2022/04/20 04:26:35;;;;;;;4.43;1.48;;;9.00;69.60;;;;;;5073773;28;20021;-12
2022/04/20 04:29:00;;;;;;;2.22;1.55;;;9.00;69.60;;;;;;5073891;28;20098;-13
2022/04/20 04:31:27;;;;;;;1.45;1.35;;;9.00;69.60;;;;;;5074063;28;20555;-13
2022/04/20 04:33:53;;;;;;;1.85;1.52;;;9.00;69.50;;;;;;5073544;28;20388;-13
2022/04/20 04:36:19;;;;;;;2.38;1.48;;;9.10;69.50;;;;;;5071916;28;20392;-13
2022/04/20 04:38:45;;;;;;;2.58;1.50;;;9.10;69.60;;;;;;5073352;28;20024;-12
2022/04/20 04:41:11;;;;;;;2.85;1.73;;;9.10;69.70;;;;;;5073224;28;20040;-12
2022/04/20 04:43:36;;;;;;;4.05;1.80;;;9.10;69.60;;;;;;5073234;28;20082;-12
2022/04/20 04:48:48;;;;;;;2.50;1.70;;;9.10;69.70;;;;;;5072991;28;20081;-14
2022/04/20 04:51:15;;;;;;;2.33;1.80;;;9.10;69.60;;;;;;5073102;28;20472;-13
2022/04/20 04:53:42;;;;;;;4.00;1.52;;;9.20;69.40;;;;;;5073525;28;20042;-13
2022/04/20 04:56:08;;;;;;;2.92;1.70;;;9.20;69.40;;;;;;5073688;28;20029;-12
2022/04/20 04:58:34;;;;;;;2.05;1.67;;;9.20;69.20;;;;;;5072989;28;20098;-13
2022/04/20 05:01:00;;;;;;;2.75;1.98;;;9.20;69.10;;;;;;5073153;28;20052;-13
2022/04/20 05:03:27;;;;;;;1.98;1.75;;;9.30;69.20;;;;;;5073150;28;20021;-13
2022/04/20 05:05:53;;;;;;;5.57;2.33;;;9.30;68.90;;;;;;5073298;28;20024;-14
2022/04/20 05:08:19;;;;;;;3.47;2.00;;;9.30;68.90;;;;;;5072855;28;20067;-13
2022/04/20 05:10:45;;;;;;;3.58;2.30;;;9.40;68.90;;;;;;5073353;28;20064;-14
2022/04/20 05:13:11;;;;;;;3.63;1.55;;;9.40;68.80;;;;;;5073254;28;20087;-12
2022/04/20 05:15:37;;;;;;;2.28;1.27;;;9.40;68.70;;;;;;5073025;28;20027;-14
2022/04/20 05:18:02;;;;;;;2.58;2.17;;;9.40;68.60;;;;;;5073316;28;20021;-14
2022/04/20 05:20:29;;;;;;;3.08;2.20;;;9.50;68.50;;;;;;5072695;28;20032;-14
2022/04/20 05:22:55;;;;;;;3.13;1.85;;;9.50;68.60;;;;;;5073047;28;20016;-13
2022/04/20 05:25:20;;;;;;;2.17;1.90;;;9.50;68.80;;;;;;5073168;28;20024;-14
2022/04/20 05:27:46;;;;;;;2.10;1.70;;;9.50;68.70;;;;;;5073182;28;20538;-13
2022/04/20 05:30:14;;;;;;;4.57;2.15;;;9.60;68.70;;;;;;5072853;28;20033;-13
2022/04/20 05:32:41;;;;;;;7.03;2.17;;;9.60;68.80;;;;;;5072738;28;20032;-13
2022/04/20 05:35:08;;;;;;;3.17;2.20;;;9.60;69.00;;;;;;5072817;28;20060;-13
2022/04/20 05:43:03;;;;;;;5.80;2.15;;;9.80;69.20;;;;;;5073090;28;20036;-13
2022/04/20 05:45:29;;;;;;;3.05;2.00;;;9.90;68.40;;;;;;5072712;28;20055;-14
2022/04/20 05:47:58;;;;;;;2.78;1.70;;;9.90;68.50;;;;;;5073757;28;20056;-13
2022/04/20 05:50:25;;;;;;;7.50;3.10;;;9.90;68.60;;;;;;5072448;28;20060;-13
2022/04/20 05:52:52;;;;;;;4.82;2.72;;;9.90;68.80;;;;;;5072817;28;20025;-12
2022/04/20 05:55:18;;;;;;;5.95;2.85;;;10.00;68.60;;;;;;5075613;28;20043;-13
2022/04/20 05:57:47;;;;;;;4.05;2.58;;;10.10;68.20;;;;;;5076439;28;20024;-13
2022/04/20 06:00:14;;;;;;;8.75;2.53;;;10.20;67.90;;;;;;5076760;28;20028;-13
2022/04/20 06:02:40;;;;;;;4.22;2.58;;;10.30;67.50;;;;;;5076998;28;20017;-13
2022/04/20 06:05:07;;;;;;;5.53;3.22;;;10.30;67.10;;;;;;5075056;28;20020;-13
2022/04/20 06:07:34;;;;;;;4.50;2.90;;;10.40;67.20;;;;;;5076160;28;20029;-14
2022/04/20 06:10:00;;;;;;;5.30;2.97;;;10.40;67.30;;;;;;5076524;28;20085;-13
2022/04/20 06:12:26;;;;;;;4.20;2.50;;;10.50;67.10;;;;;;5075955;28;20468;-13
2022/04/20 06:14:51;;;;;;;4.72;2.90;;;10.60;66.80;;;;;;5076188;28;20021;-13
2022/04/20 06:17:17;;;;;;;3.75;2.17;;;10.70;66.50;;;;;;5076304;28;20028;-14
2022/04/20 06:19:43;;;;;;;4.97;2.00;;;10.90;66.30;;;;;;5076569;28;20085;-14
2022/04/20 06:22:09;;;;;;;3.65;2.17;;;11.00;66.00;;;;;;5074743;28;20028;-15
2022/04/20 06:24:35;;;;;;;2.38;2.15;;;11.10;65.30;;;;;;5075743;28;20035;-13
2022/04/20 06:27:02;;;;;;;7.70;2.35;;;11.30;65.20;;;;;;5075891;28;20077;-14
2022/04/20 06:29:28;;;;;;;6.25;2.42;;;11.40;64.50;;;;;;5075876;28;20484;-14
2022/04/20 06:31:54;;;;;;;5.10;2.53;;;11.60;65.00;;;;;;5076033;28;20032;-13
2022/04/20 06:34:20;;;;;;;3.30;2.55;;;11.70;64.70;;;;;;5075800;28;20032;-13
2022/04/20 06:36:45;;;;;;;5.90;2.38;;;11.80;64.60;;;;;;5075650;28;20036;-14
2022/04/20 06:39:11;;;;;;;3.38;2.05;;;11.90;64.20;;;;;;5075711;28;20025;-13
2022/04/20 06:41:37;;;;;;;3.08;2.78;;;12.10;63.80;;;;;;5075944;28;20025;-13
2022/04/20 06:44:03;;;;;;;3.90;2.13;;;12.20;63.20;;;;;;5076032;28;20047;-13
2022/04/20 06:46:30;;;;;;;5.15;2.97;;;12.40;62.80;;;;;;5074155;28;20116;-13
2022/04/20 06:48:55;;;;;;;4.72;2.63;;;12.40;62.30;;;;;;5075835;28;20099;-14
2022/04/20 06:51:21;;;;;;;5.30;3.00;;;12.50;60.40;;;;;;5075550;28;20056;-13
2022/04/20 06:59:16;;;;;;;4.22;2.70;;;12.70;60.40;;;;;;5075725;28;20268;-13
2022/04/20 07:01:42;;;;;;;3.22;2.40;;;12.80;59.20;;;;;;5075353;28;20472;-13
2022/04/20 07:04:08;;;;;;;3.92;2.85;;;12.90;59.70;;;;;;5075236;28;20024;-13
2022/04/20 07:06:33;;;;;;;3.10;2.33;;;12.90;58.90;;;;;;5074573;28;20029;-13
2022/04/20 07:08:59;;;;;;;3.05;2.30;;;13.00;57.70;;;;;;5075775;28;20032;-13
2022/04/20 07:11:28;;;;;;;3.30;2.20;;;13.10;57.50;;;;;;5075342;28;20029;-14
2022/04/20 07:13:55;;;;;;;2.70;2.10;;;13.20;57.90;;;;;;5074832;28;20080;-14
2022/04/20 07:16:21;;;;;;;3.38;2.30;;;13.30;56.90;;;;;;5074910;28;20024;-13
2022/04/20 07:18:47;;;;;;;3.75;2.28;;;13.40;56.90;;;;;;5074998;28;20029;-13
2022/04/20 07:21:13;;;;;;;3.30;2.05;;;13.50;56.70;;;;;;5075092;28;20035;-13
2022/04/20 07:23:39;;;;;;;4.18;2.45;;;13.70;56.00;;;;;;5075109;28;20484;-13
2022/04/20 07:26:05;;;;;;;2.53;2.20;;;13.80;55.10;;;;;;5074906;28;20028;-13
2022/04/20 07:28:31;;;;;;;3.65;2.00;;;13.80;54.50;;;;;;5074510;28;20052;-14
2022/04/20 07:30:57;;;;;;;3.42;2.20;;;13.90;53.90;;;;;;5074908;28;20037;-13
2022/04/20 07:33:24;;;;;;;3.58;2.17;;;13.90;54.00;;;;;;5074961;28;20025;-13
2022/04/20 07:35:50;;;;;;;4.38;2.35;;;14.10;54.10;;;;;;5074595;28;20494;-13
2022/04/20 07:38:16;;;;;;;3.10;2.20;;;14.20;53.50;;;;;;5074466;28;20098;-13
2022/04/20 07:40:42;;;;;;;3.38;2.10;;;14.30;53.30;;;;;;5073278;28;20063;-13
2022/04/20 07:43:08;;;;;;;2.90;1.90;;;14.40;52.00;;;;;;5074784;28;20103;-13
2022/04/20 07:45:34;;;;;;;2.55;2.17;;;14.40;51.10;;;;;;5074458;28;20032;-13
2022/04/20 07:48:00;;;;;;;4.70;2.50;;;14.50;50.80;;;;;;5074677;28;20417;-14
2022/04/20 07:50:26;;;;;;;3.72;2.55;;;14.60;51.10;;;;;;5072888;28;20230;-13
2022/04/20 07:52:54;;;;;;;2.50;2.00;;;14.70;50.30;;;;;;5074147;28;20060;-13
2022/04/20 07:55:22;;;;;;;3.47;2.42;;;14.80;50.50;;;;;;5074550;28;20016;-13
2022/04/20 07:57:51;;;;;;;2.78;1.90;;;14.90;50.20;;;;;;5074545;28;20036;-13
2022/04/20 08:00:18;;;;;;;4.35;2.30;;;15.00;51.00;;;;;;5073910;28;20396;-13
2022/04/20 08:02:45;;;;;;;3.25;2.30;;;15.10;50.80;;;;;;5074391;28;20032;-13
2022/04/20 08:05:14;;;;;;;2.85;2.33;;;15.20;50.50;;;;;;5074347;28;20047;-13
2022/04/20 08:07:40;;;;;;;4.25;2.35;;;15.30;49.50;;;;;;5074119;28;20476;-13
2022/04/20 08:10:08;;;;;;;4.40;2.63;;;15.40;49.70;;;;;;5074016;28;20024;-13
2022/04/20 08:12:44;;;;;;;4.05;2.42;;;15.60;48.90;;;;;;5073663;28;20408;-13
2022/04/20 08:15:11;;;;;;;6.97;3.00;;;15.90;48.60;;;;;;5074147;28;20503;-13
2022/04/20 08:17:37;;;;;;;5.65;2.70;;;16.20;48.00;;;;;;5073099;28;20017;-13
2022/04/20 08:20:08;;;;;;;5.28;3.00;;;16.70;48.10;;;;;;5073950;28;20063;-14
2022/04/20 08:22:42;;;;;;;5.85;2.92;;;17.00;45.80;;;;;;5073777;28;20036;-13
2022/04/20 08:25:13;;;;;;;4.90;2.83;;;17.10;44.70;;;;;;5074205;28;20060;-13
2022/04/20 08:27:39;;;;;;;2.78;2.38;;;17.20;43.90;;;;;;5073925;28;20053;-13
2022/04/20 08:30:10;;;;;;;4.88;2.40;;;17.10;45.40;;;;;;5073645;28;20020;-13
2022/04/20 08:32:38;;;;;;;3.20;2.30;;;17.20;45.10;;;;;;5072116;28;20033;-14
2022/04/20 08:35:05;;;;;;;3.63;2.35;;;17.40;45.10;;;;;;5073487;28;20400;-14
2022/04/20 08:37:31;;;;;;;2.40;2.20;;;17.50;43.20;;;;;;5073674;28;20495;-13
2022/04/20 08:39:57;;;;;;;2.95;2.40;;;17.70;43.40;;;;;;5073536;28;20056;-15
2022/04/20 08:42:24;;;;;;;3.60;2.20;;;17.90;42.40;;;;;;5073776;28;20022;-14
2022/04/20 08:44:51;;;;;;;9.27;2.15;;;18.00;43.10;;;;;;5073690;28;20089;-13
2022/04/20 08:47:21;;;;;;;4.50;2.10;;;18.30;43.10;;;;;;5073933;28;20052;-13
2022/04/20 08:49:49;;;;;;;3.00;2.30;;;18.40;42.80;;;;;;5073545;28;20488;-13
2022/04/20 08:55:02;;;;;;;2.53;2.30;;;18.30;42.70;;;;;;5073905;28;20055;-13
2022/04/20 08:57:29;;;;;;;3.67;2.17;;;18.40;41.20;;;;;;5073551;28;20036;-13
2022/04/20 08:59:58;;;;;;;2.70;2.35;;;18.40;41.30;;;;;;5073407;28;20028;-13
2022/04/20 09:02:25;;;;;;;3.60;2.25;;;18.50;41.20;;;;;;5073605;28;20044;-14
2022/04/20 09:04:52;;;;;;;1.88;1.77;;;18.50;42.10;;;;;;5073622;28;20093;-13
2022/04/20 09:07:18;;;;;;;4.45;2.10;;;18.60;41.70;;;;;;5073331;28;20056;-13
2022/04/20 09:09:44;;;;;;;4.10;2.40;;;18.70;41.50;;;;;;5073079;28;20024;-13
2022/04/20 09:12:16;;;;;;;3.35;1.70;;;18.90;41.70;;;;;;5072731;28;20052;-15
2022/04/20 09:14:45;;;;;;;3.80;2.40;;;19.00;41.50;;;;;;5073587;28;20017;-13
2022/04/20 09:17:13;;;;;;;3.17;2.50;;;19.00;39.60;;;;;;5072983;28;20060;-13
2022/04/20 09:19:40;;;;;;;4.40;2.45;;;19.10;41.40;;;;;;5072896;28;20056;-13
2022/04/20 09:22:25;;;;;;;3.85;2.22;;;19.30;40.20;;;;;;5073254;28;20028;-13
2022/04/20 09:24:58;;;;;;;3.20;2.35;;;19.40;40.50;;;;;;5071709;28;20055;-13
2022/04/20 09:27:26;;;;;;;3.40;2.33;;;19.60;40.30;;;;;;5072950;28;20115;-13
2022/04/20 09:29:54;;;;;;;2.30;2.10;;;19.90;40.50;;;;;;5077027;28;20024;-13
2022/04/20 09:32:41;;;;;;;2.95;2.42;;;19.90;39.90;;;;;;5077000;28;20037;-14
2022/04/20 09:35:10;;;;;;;2.90;2.05;;;20.10;38.10;;;;;;5076964;28;20108;-14
2022/04/20 09:37:37;;;;;;;3.28;2.20;;;20.10;39.60;;;;;;5076792;28;20039;-14
2022/04/20 09:40:05;;;;;;;3.03;2.08;;;20.10;39.80;;;;;;5076879;28;20028;-13
2022/04/20 09:42:34;;;;;;;2.65;2.28;;;20.10;38.40;;;;;;5077393;28;20476;-13
2022/04/20 09:45:03;;;;;;;4.97;2.58;;;20.10;39.00;;;;;;5077078;28;20028;-13
2022/04/20 09:50:24;;;;;;;5.00;2.15;;;20.20;39.10;;;;;;5076872;28;20071;-14
2022/04/20 09:52:55;;;;;;;1.98;1.80;;;20.10;38.90;;;;;;5076741;28;20403;-13
2022/04/20 09:55:35;;;;;;;4.18;2.22;;;20.40;39.70;;;;;;5077213;28;20056;-14
2022/04/20 09:58:21;;;;;;;5.15;2.50;;;20.60;38.60;;;;;;5076874;28;20037;-13
2022/04/20 10:00:49;;;;;;;3.15;2.20;;;20.90;37.90;;;;;;5076533;28;20484;-13
2022/04/20 10:03:34;;;;;;;3.55;2.67;;;21.10;38.70;;;;;;5076725;28;20023;-13
2022/04/20 10:06:02;;;;;;;3.67;2.50;;;21.30;38.30;;;;;;5076714;28;20025;-13
2022/04/20 10:08:29;;;;;;;2.10;1.90;;;21.60;37.00;;;;;;5076346;28;20055;-13
2022/04/20 10:10:55;;;;;;;3.13;2.05;;;21.80;36.90;;;;;;5076123;28;20083;-14
2022/04/20 10:13:22;;;;;;;3.30;2.50;;;22.20;36.20;;;;;;5075908;28;20053;-15
2022/04/20 10:16:07;;;;;;;3.97;2.53;;;22.60;35.20;;;;;;5076654;28;20051;-13
2022/04/20 10:18:38;;;;;;;2.50;2.30;;;22.90;34.00;;;;;;5076283;28;20036;-13
2022/04/20 10:21:12;;;;;;;3.05;2.20;;;23.00;34.70;;;;;;5076404;28;20024;-14
2022/04/20 10:23:45;;;;;;;;;;;23.10;35.40;;;;;;5076544;28;20039;-13
2022/04/20 10:26:12;;;;;;;4.97;2.67;;;23.30;33.60;;;;;;5076550;28;19905;-13
2022/04/20 10:28:58;;;;;;;3.70;2.88;;;23.30;33.30;;;;;;5076227;28;20024;-13
2022/04/20 10:31:38;;;;;;;3.45;2.58;;;23.30;33.10;;;;;;5076031;28;20013;-12
2022/04/20 10:34:05;;;;;;;3.50;2.40;;;23.20;32.90;;;;;;5076173;28;20032;-13
2022/04/20 10:36:33;;;;;;;3.15;2.38;;;23.10;33.30;;;;;;5074194;28;20369;-13
2022/04/20 10:39:25;;;;;;;4.22;2.58;;;23.20;33.50;;;;;;5075987;28;20036;-13
2022/04/20 10:42:11;;;;;;;4.70;2.90;;;23.50;33.80;;;;;;5076536;28;20028;-14
2022/04/20 10:44:55;;;;;;;3.40;2.47;;;23.20;32.70;;;;;;5075402;28;20036;-13
2022/04/20 10:47:25;;;;;;;4.50;3.05;;;22.40;33.70;;;;;;5075575;28;20063;-14
2022/04/20 10:49:52;;;;;;;2.33;2.10;;;21.80;34.90;;;;;;5075829;28;20048;-13
2022/04/20 10:52:25;;;;;;;4.38;2.40;;;21.20;36.40;;;;;;5075142;28;20429;-14
2022/04/20 10:54:53;;;;;;;4.30;2.80;;;20.80;37.40;;;;;;5075416;28;20036;-13
2022/04/20 10:57:33;;;;;;;4.88;3.30;;;20.70;37.50;;;;;;5076105;28;20028;-13
2022/04/20 11:00:17;;;;;;;4.55;2.80;;;20.50;37.40;;;;;;5075370;28;20027;-14
2022/04/20 11:02:54;;;;;;;4.70;2.60;;;20.20;38.20;;;;;;5075580;28;20027;-13
2022/04/20 11:05:25;;;;;;;5.38;2.65;;;20.30;38.70;;;;;;5075197;28;20025;-13
2022/04/20 11:07:59;;;;;;;4.80;2.30;;;20.70;38.20;;;;;;5075420;28;20121;-13
2022/04/20 11:10:26;;;;;;;2.42;2.10;;;21.30;38.00;;;;;;5075168;28;20039;-13
2022/04/20 11:19:08;;;;;;;8.00;3.28;;;23.50;34.30;;;;;;5075632;28;20086;-13
2022/04/20 11:21:36;;;;;;;4.22;3.03;;;24.10;34.10;;;;;;5075207;28;20025;-14
2022/04/20 11:24:07;;;;;;;6.07;2.70;;;24.60;32.70;;;;;;5074880;28;20037;-14
2022/04/20 11:26:39;;;;;;;6.30;2.70;;;24.90;32.60;;;;;;5074739;28;20484;-13
2022/04/20 11:29:09;;;;;;;4.97;2.63;;;25.20;31.50;;;;;;5074860;28;20020;-13
2022/04/20 11:31:42;;;;;;;4.05;2.85;;;25.40;31.50;;;;;;5074982;28;20028;-13
2022/04/20 11:34:10;;;;;;;4.07;2.33;;;25.50;31.20;;;;;;5075077;28;20532;-13
2022/04/20 11:36:42;;;;;;;6.70;3.05;;;25.00;32.00;;;;;;5074828;28;20032;-14
2022/04/20 11:39:12;;;;;;;10.32;2.70;;;24.80;32.70;;;;;;5074934;28;20043;-13
2022/04/20 11:41:43;;;;;;;3.35;2.17;;;24.60;32.60;;;;;;5074575;28;20059;-14
2022/04/20 11:44:21;;;;;;;5.88;2.90;;;24.50;32.50;;;;;;5074873;28;20491;-13
2022/04/20 11:46:49;;;;;;;3.40;2.50;;;24.70;32.40;;;;;;5074451;28;20040;-13
2022/04/20 11:49:16;;;;;;;3.80;2.70;;;24.70;32.20;;;;;;5074800;28;20040;-13
2022/04/20 11:52:00;;;;;;;4.75;2.60;;;24.60;32.50;;;;;;5073140;28;20028;-14
2022/04/20 11:54:30;;;;;;;4.10;2.38;;;24.40;32.30;;;;;;5074112;28;20036;-14
2022/04/20 11:56:57;;;;;;;6.88;2.90;;;24.20;32.80;;;;;;5074239;28;20033;-12
2022/04/20 11:59:24;;;;;;;6.20;2.60;;;24.40;32.90;;;;;;5074520;28;20082;-12
2022/04/20 12:01:51;;;;;;;7.38;2.90;;;24.80;31.40;;;;;;5074116;28;20064;-11
2022/04/20 12:04:19;;;;;;;3.15;2.30;;;25.30;30.40;;;;;;5073827;28;20040;-12
2022/04/20 12:06:45;;;;;;;4.53;2.40;;;25.50;30.10;;;;;;5073937;28;20028;-12
2022/04/20 12:09:11;;;;;;;5.18;2.80;;;25.80;29.70;;;;;;5074224;28;20029;-12
2022/04/20 12:11:37;;;;;;;6.03;2.72;;;25.60;29.70;;;;;;5073861;28;20074;-12
2022/04/20 12:14:03;;;;;;;4.22;2.50;;;25.40;29.80;;;;;;5073818;28;20044;-12
2022/04/20 12:16:34;;;;;;;4.75;2.72;;;25.40;28.60;;;;;;5073821;28;20392;-13
2022/04/20 12:19:00;;;;;;;4.00;2.50;;;25.30;28.50;;;;;;5074205;28;20056;-12
2022/04/20 12:21:37;;;;;;;3.97;2.63;;;25.00;29.00;;;;;;5073661;28;20021;-12
2022/04/20 12:24:04;;;;;;;5.45;2.97;;;24.80;29.90;;;;;;5073963;28;20017;-12
2022/04/20 12:26:30;;;;;;;4.68;2.83;;;24.60;30.30;;;;;;5073450;28;20020;-11
2022/04/20 12:29:00;;;;;;;3.78;2.30;;;24.50;30.20;;;;;;5073593;28;20017;-12
2022/04/20 12:31:26;;;;;;;5.40;2.80;;;24.10;31.00;;;;;;5073508;28;20115;-12
2022/04/20 12:34:07;;;;;;;3.53;2.15;;;24.00;30.30;;;;;;5073534;28;20104;-11
2022/04/20 12:36:58;;;;;;;2.92;2.08;;;23.90;30.60;;;;;;5073586;28;20028;-13
2022/04/20 12:39:32;;;;;;;7.47;2.58;;;23.80;31.20;;;;;;5073736;28;20033;-13
2022/04/20 12:42:04;;;;;;;5.45;2.55;;;24.00;30.90;;;;;;5073425;28;20429;-12
2022/04/20 12:44:36;;;;;;;5.30;2.50;;;24.00;30.30;;;;;;5074119;28;20108;-12
2022/04/20 12:47:10;;;;;;;3.60;2.33;;;24.30;29.50;;;;;;5074334;28;20103;-13
2022/04/20 12:49:37;;;;;;;4.75;2.33;;;24.20;29.50;;;;;;5073318;28;20275;-13
2022/04/20 12:52:12;;;;;;;3.97;2.30;;;24.40;29.60;;;;;;5073468;28;20033;-12
2022/04/20 12:54:39;;;;;;;3.13;2.30;;;24.40;29.60;;;;;;5073478;28;20054;-13
2022/04/20 13:03:05;;;;;;;8.13;3.00;;;25.70;28.50;;;;;;5073219;28;20053;-13
2022/04/20 13:05:33;;;;;;;4.78;2.53;;;25.70;28.20;;;;;;5073487;28;20483;-12
2022/04/20 13:07:59;;;;;;;3.03;2.28;;;25.60;28.80;;;;;;5073033;28;20031;-12
2022/04/20 13:10:26;;;;;;;6.00;2.63;;;25.50;27.80;;;;;;5071666;28;20024;-14
2022/04/20 13:12:54;;;;;;;4.60;2.83;;;25.30;28.40;;;;;;5072794;28;20090;-12
2022/04/20 13:15:22;;;;;;;5.30;2.40;;;25.30;28.60;;;;;;5072047;28;20442;-14
2022/04/20 13:17:48;;;;;;;4.78;2.50;;;25.50;28.20;;;;;;5073565;28;20016;-12
2022/04/20 13:20:18;;;;;;;4.78;2.47;;;25.80;28.30;;;;;;5073099;28;20099;-12
2022/04/20 13:22:45;;;;;;;5.72;2.55;;;25.90;27.50;;;;;;5072835;28;20439;-13
2022/04/20 13:27:56;;;;;;;5.78;2.60;;;25.70;27.60;;;;;;5073427;28;20035;-12
2022/04/20 13:30:28;;;;;;;2.20;2.00;;;25.70;27.90;;;;;;5073070;28;20054;-11
2022/04/20 13:32:56;;;;;;;5.43;2.65;;;25.70;27.50;;;;;;5073105;28;20488;-12
2022/04/20 13:35:24;;;;;;;4.93;2.70;;;25.40;27.80;;;;;;5073070;28;20396;-13